Oosterpark, Netherlands
Current Conditions -  °F | °C
As of 12:55 AM on Monday 24 Nov 2014 (Local Time) from EHGG Reporting Station
Drizzle Drizzle  
Wind Chill: 50°   Ceiling: 500
Heat Index: 50°   Visibility: 2.3mi
Dew Point: 48°   Wind: 9mph
Humidity: 94%   Direction: 310°NW
Pressure: 29.94"   Gusts: NA
Location:  53.22°N, 6.59°E
Report Text: EHGG 232355Z AUTO 31008KT 280V340 3800 +DZ SCT004 BKN005 BKN00710/09 Q1014
Loading
Personal Weather Stations






























Interactive Weather Map New forecast layout! Learn more

10-Day Weather Forecast

Advertisements
Track Severe Weather on mobile